sensor_id;sensor_type;location;lat;lon;timestamp;P1;durP1;ratioP1;P2;durP2;ratioP2
48951;SDS011;34758;42.148;24.744;2023-01-28T00:01:14;2.10;;;1.40;;
48951;SDS011;34758;42.148;24.744;2023-01-28T00:03:41;2.33;;;1.35;;
48951;SDS011;34758;42.148;24.744;2023-01-28T00:06:09;2.53;;;1.45;;
48951;SDS011;34758;42.148;24.744;2023-01-28T00:08:37;2.40;;;1.30;;
48951;SDS011;34758;42.148;24.744;2023-01-28T00:11:05;2.13;;;1.60;;
48951;SDS011;34758;42.148;24.744;2023-01-28T00:13:36;2.05;;;1.40;;
48951;SDS011;34758;42.148;24.744;2023-01-28T00:16:04;1.60;;;1.42;;
48951;SDS011;34758;42.148;24.744;2023-01-28T00:18:32;2.53;;;1.40;;
48951;SDS011;34758;42.148;24.744;2023-01-28T00:21:01;3.45;;;1.67;;
48951;SDS011;34758;42.148;24.744;2023-01-28T00:23:30;2.13;;;1.60;;
48951;SDS011;34758;42.148;24.744;2023-01-28T00:25:57;2.42;;;1.70;;
48951;SDS011;34758;42.148;24.744;2023-01-28T00:28:26;1.90;;;1.15;;
48951;SDS011;34758;42.148;24.744;2023-01-28T00:30:54;2.30;;;1.60;;
48951;SDS011;34758;42.148;24.744;2023-01-28T00:33:21;1.75;;;1.50;;
48951;SDS011;34758;42.148;24.744;2023-01-28T00:35:56;1.95;;;1.30;;
48951;SDS011;34758;42.148;24.744;2023-01-28T00:38:24;2.40;;;1.65;;
48951;SDS011;34758;42.148;24.744;2023-01-28T00:40:51;1.65;;;1.40;;
48951;SDS011;34758;42.148;24.744;2023-01-28T00:43:18;1.98;;;1.33;;
48951;SDS011;34758;42.148;24.744;2023-01-28T00:45:47;2.53;;;1.80;;
48951;SDS011;34758;42.148;24.744;2023-01-28T00:48:17;2.08;;;1.65;;
48951;SDS011;34758;42.148;24.744;2023-01-28T00:50:45;1.73;;;1.38;;
48951;SDS011;34758;42.148;24.744;2023-01-28T00:53:12;1.83;;;1.40;;
48951;SDS011;34758;42.148;24.744;2023-01-28T00:55:41;2.28;;;1.42;;
48951;SDS011;34758;42.148;24.744;2023-01-28T00:58:08;2.03;;;1.65;;
48951;SDS011;34758;42.148;24.744;2023-01-28T01:00:35;2.25;;;1.50;;
48951;SDS011;34758;42.148;24.744;2023-01-28T01:03:03;1.63;;;1.25;;
48951;SDS011;34758;42.148;24.744;2023-01-28T01:05:32;2.00;;;1.58;;
48951;SDS011;34758;42.148;24.744;2023-01-28T01:07:59;1.60;;;1.20;;
48951;SDS011;34758;42.148;24.744;2023-01-28T01:10:28;2.70;;;1.35;;
48951;SDS011;34758;42.148;24.744;2023-01-28T01:12:55;1.80;;;1.40;;
48951;SDS011;34758;42.148;24.744;2023-01-28T01:15:23;1.17;;;0.90;;
48951;SDS011;34758;42.148;24.744;2023-01-28T01:17:50;1.70;;;1.25;;
48951;SDS011;34758;42.148;24.744;2023-01-28T01:20:19;2.85;;;1.40;;
48951;SDS011;34758;42.148;24.744;2023-01-28T01:22:49;1.63;;;1.02;;
48951;SDS011;34758;42.148;24.744;2023-01-28T01:25:16;2.60;;;1.40;;
48951;SDS011;34758;42.148;24.744;2023-01-28T01:27:44;1.30;;;1.10;;
48951;SDS011;34758;42.148;24.744;2023-01-28T01:30:14;2.13;;;1.27;;
48951;SDS011;34758;42.148;24.744;2023-01-28T01:32:42;1.73;;;1.38;;
48951;SDS011;34758;42.148;24.744;2023-01-28T01:35:09;1.58;;;1.20;;
48951;SDS011;34758;42.148;24.744;2023-01-28T01:37:36;1.63;;;1.20;;
48951;SDS011;34758;42.148;24.744;2023-01-28T01:40:05;2.13;;;1.30;;
48951;SDS011;34758;42.148;24.744;2023-01-28T01:42:36;2.38;;;1.40;;
48951;SDS011;34758;42.148;24.744;2023-01-28T01:45:03;1.52;;;1.20;;
48951;SDS011;34758;42.148;24.744;2023-01-28T01:47:34;2.30;;;1.48;;
48951;SDS011;34758;42.148;24.744;2023-01-28T01:50:06;2.05;;;1.50;;
48951;SDS011;34758;42.148;24.744;2023-01-28T01:52:37;1.92;;;1.33;;
48951;SDS011;34758;42.148;24.744;2023-01-28T01:55:08;1.50;;;1.30;;
48951;SDS011;34758;42.148;24.744;2023-01-28T01:57:40;1.60;;;0.95;;
48951;SDS011;34758;42.148;24.744;2023-01-28T02:00:08;1.70;;;1.20;;
48951;SDS011;34758;42.148;24.744;2023-01-28T02:02:37;2.13;;;1.50;;
48951;SDS011;34758;42.148;24.744;2023-01-28T02:05:06;1.48;;;1.35;;
48951;SDS011;34758;42.148;24.744;2023-01-28T02:07:34;1.55;;;0.93;;
48951;SDS011;34758;42.148;24.744;2023-01-28T02:10:02;2.50;;;1.48;;
48951;SDS011;34758;42.148;24.744;2023-01-28T02:12:32;1.73;;;1.17;;
48951;SDS011;34758;42.148;24.744;2023-01-28T02:15:02;2.17;;;1.40;;
48951;SDS011;34758;42.148;24.744;2023-01-28T02:17:31;1.85;;;1.38;;
48951;SDS011;34758;42.148;24.744;2023-01-28T02:19:59;2.38;;;1.65;;
48951;SDS011;34758;42.148;24.744;2023-01-28T02:22:36;1.60;;;1.40;;
48951;SDS011;34758;42.148;24.744;2023-01-28T02:25:17;1.52;;;0.98;;
48951;SDS011;34758;42.148;24.744;2023-01-28T02:28:04;3.42;;;2.03;;
48951;SDS011;34758;42.148;24.744;2023-01-28T02:30:39;3.08;;;1.50;;
48951;SDS011;34758;42.148;24.744;2023-01-28T02:33:09;1.92;;;1.20;;
48951;SDS011;34758;42.148;24.744;2023-01-28T02:35:40;1.35;;;0.93;;
48951;SDS011;34758;42.148;24.744;2023-01-28T02:38:10;2.00;;;0.93;;
48951;SDS011;34758;42.148;24.744;2023-01-28T02:40:40;1.63;;;0.90;;
48951;SDS011;34758;42.148;24.744;2023-01-28T02:43:29;2.15;;;1.45;;
48951;SDS011;34758;42.148;24.744;2023-01-28T02:45:57;1.00;;;0.88;;
48951;SDS011;34758;42.148;24.744;2023-01-28T02:48:42;1.60;;;1.02;;
48951;SDS011;34758;42.148;24.744;2023-01-28T02:51:13;1.23;;;0.80;;
48951;SDS011;34758;42.148;24.744;2023-01-28T02:53:48;0.90;;;0.80;;
48951;SDS011;34758;42.148;24.744;2023-01-28T02:56:19;1.25;;;0.70;;
48951;SDS011;34758;42.148;24.744;2023-01-28T02:58:57;1.58;;;0.90;;
48951;SDS011;34758;42.148;24.744;2023-01-28T03:01:48;1.27;;;0.98;;
48951;SDS011;34758;42.148;24.744;2023-01-28T03:04:22;0.82;;;0.50;;
48951;SDS011;34758;42.148;24.744;2023-01-28T03:06:56;1.85;;;1.08;;
48951;SDS011;34758;42.148;24.744;2023-01-28T03:09:24;2.35;;;1.15;;
48951;SDS011;34758;42.148;24.744;2023-01-28T03:11:52;1.40;;;1.00;;
48951;SDS011;34758;42.148;24.744;2023-01-28T03:14:40;1.63;;;0.93;;
48951;SDS011;34758;42.148;24.744;2023-01-28T03:17:26;1.50;;;1.40;;
48951;SDS011;34758;42.148;24.744;2023-01-28T03:20:13;1.23;;;0.90;;
48951;SDS011;34758;42.148;24.744;2023-01-28T03:23:00;1.65;;;0.98;;
48951;SDS011;34758;42.148;24.744;2023-01-28T03:25:46;1.25;;;0.90;;
48951;SDS011;34758;42.148;24.744;2023-01-28T03:28:32;1.40;;;0.90;;
48951;SDS011;34758;42.148;24.744;2023-01-28T03:31:21;2.95;;;1.38;;
48951;SDS011;34758;42.148;24.744;2023-01-28T03:34:05;1.45;;;0.93;;
48951;SDS011;34758;42.148;24.744;2023-01-28T03:36:51;1.10;;;0.80;;
48951;SDS011;34758;42.148;24.744;2023-01-28T03:39:20;1.48;;;0.88;;
48951;SDS011;34758;42.148;24.744;2023-01-28T03:41:59;1.92;;;1.00;;
48951;SDS011;34758;42.148;24.744;2023-01-28T03:44:27;1.40;;;0.95;;
48951;SDS011;34758;42.148;24.744;2023-01-28T03:47:13;1.05;;;0.80;;
48951;SDS011;34758;42.148;24.744;2023-01-28T03:49:41;1.17;;;0.77;;
48951;SDS011;34758;42.148;24.744;2023-01-28T03:52:09;1.88;;;1.10;;
48951;SDS011;34758;42.148;24.744;2023-01-28T03:54:36;1.67;;;0.93;;
48951;SDS011;34758;42.148;24.744;2023-01-28T03:57:04;1.50;;;1.00;;
48951;SDS011;34758;42.148;24.744;2023-01-28T03:59:31;2.05;;;0.90;;
48951;SDS011;34758;42.148;24.744;2023-01-28T04:01:58;0.75;;;0.57;;
48951;SDS011;34758;42.148;24.744;2023-01-28T04:04:28;1.17;;;0.70;;
48951;SDS011;34758;42.148;24.744;2023-01-28T04:06:56;1.23;;;0.82;;
48951;SDS011;34758;42.148;24.744;2023-01-28T04:09:23;1.85;;;0.80;;
48951;SDS011;34758;42.148;24.744;2023-01-28T04:11:50;1.27;;;0.80;;
48951;SDS011;34758;42.148;24.744;2023-01-28T04:14:17;1.65;;;0.80;;
48951;SDS011;34758;42.148;24.744;2023-01-28T04:16:44;1.05;;;0.80;;
48951;SDS011;34758;42.148;24.744;2023-01-28T04:19:11;1.10;;;0.90;;
48951;SDS011;34758;42.148;24.744;2023-01-28T04:21:41;1.38;;;0.68;;
48951;SDS011;34758;42.148;24.744;2023-01-28T04:24:08;1.83;;;0.90;;
48951;SDS011;34758;42.148;24.744;2023-01-28T04:26:36;1.67;;;0.90;;
48951;SDS011;34758;42.148;24.744;2023-01-28T04:29:03;1.50;;;0.63;;
48951;SDS011;34758;42.148;24.744;2023-01-28T04:31:31;1.50;;;0.88;;
48951;SDS011;34758;42.148;24.744;2023-01-28T04:33:58;1.05;;;0.63;;
48951;SDS011;34758;42.148;24.744;2023-01-28T04:36:25;1.55;;;0.82;;
48951;SDS011;34758;42.148;24.744;2023-01-28T04:38:54;2.67;;;1.30;;
48951;SDS011;34758;42.148;24.744;2023-01-28T04:41:21;2.10;;;0.95;;
48951;SDS011;34758;42.148;24.744;2023-01-28T04:43:48;1.60;;;1.00;;
48951;SDS011;34758;42.148;24.744;2023-01-28T04:46:16;3.30;;;0.70;;
48951;SDS011;34758;42.148;24.744;2023-01-28T04:48:43;1.20;;;0.98;;
48951;SDS011;34758;42.148;24.744;2023-01-28T04:51:10;3.25;;;1.15;;
48951;SDS011;34758;42.148;24.744;2023-01-28T04:53:37;2.08;;;0.70;;
48951;SDS011;34758;42.148;24.744;2023-01-28T04:56:06;1.30;;;0.95;;
48951;SDS011;34758;42.148;24.744;2023-01-28T04:58:33;2.00;;;1.15;;
48951;SDS011;34758;42.148;24.744;2023-01-28T05:01:00;1.77;;;0.90;;
48951;SDS011;34758;42.148;24.744;2023-01-28T05:03:26;2.20;;;1.50;;
48951;SDS011;34758;42.148;24.744;2023-01-28T05:05:54;1.92;;;1.58;;
48951;SDS011;34758;42.148;24.744;2023-01-28T05:08:21;2.72;;;1.85;;
48951;SDS011;34758;42.148;24.744;2023-01-28T05:10:48;2.42;;;1.85;;
48951;SDS011;34758;42.148;24.744;2023-01-28T05:13:16;2.05;;;1.70;;
48951;SDS011;34758;42.148;24.744;2023-01-28T05:15:49;2.20;;;1.27;;
48951;SDS011;34758;42.148;24.744;2023-01-28T05:18:17;2.10;;;1.25;;
48951;SDS011;34758;42.148;24.744;2023-01-28T05:20:48;3.28;;;1.30;;
48951;SDS011;34758;42.148;24.744;2023-01-28T05:23:16;2.78;;;1.20;;
48951;SDS011;34758;42.148;24.744;2023-01-28T05:25:43;2.15;;;1.30;;
48951;SDS011;34758;42.148;24.744;2023-01-28T05:28:12;2.25;;;1.23;;
48951;SDS011;34758;42.148;24.744;2023-01-28T05:30:41;4.32;;;1.40;;
48951;SDS011;34758;42.148;24.744;2023-01-28T05:33:08;1.90;;;1.17;;
48951;SDS011;34758;42.148;24.744;2023-01-28T05:35:35;1.90;;;1.40;;
48951;SDS011;34758;42.148;24.744;2023-01-28T05:38:04;3.72;;;1.48;;
48951;SDS011;34758;42.148;24.744;2023-01-28T05:40:32;2.15;;;1.05;;
48951;SDS011;34758;42.148;24.744;2023-01-28T05:42:59;2.92;;;1.67;;
48951;SDS011;34758;42.148;24.744;2023-01-28T05:45:28;1.80;;;1.13;;
48951;SDS011;34758;42.148;24.744;2023-01-28T05:47:56;3.72;;;1.42;;
48951;SDS011;34758;42.148;24.744;2023-01-28T05:50:23;2.42;;;1.60;;
48951;SDS011;34758;42.148;24.744;2023-01-28T05:52:50;5.30;;;2.70;;
48951;SDS011;34758;42.148;24.744;2023-01-28T05:55:16;3.97;;;2.35;;
48951;SDS011;34758;42.148;24.744;2023-01-28T05:57:44;3.42;;;2.08;;
48951;SDS011;34758;42.148;24.744;2023-01-28T06:00:11;4.72;;;2.20;;
48951;SDS011;34758;42.148;24.744;2023-01-28T06:02:40;2.45;;;1.73;;
48951;SDS011;34758;42.148;24.744;2023-01-28T06:05:09;2.40;;;2.03;;
48951;SDS011;34758;42.148;24.744;2023-01-28T06:07:36;4.63;;;2.15;;
48951;SDS011;34758;42.148;24.744;2023-01-28T06:10:04;3.65;;;1.48;;
48951;SDS011;34758;42.148;24.744;2023-01-28T06:12:32;2.38;;;1.58;;
48951;SDS011;34758;42.148;24.744;2023-01-28T06:14:58;2.75;;;1.30;;
48951;SDS011;34758;42.148;24.744;2023-01-28T06:17:26;4.93;;;2.00;;
48951;SDS011;34758;42.148;24.744;2023-01-28T06:19:53;4.00;;;1.63;;
48951;SDS011;34758;42.148;24.744;2023-01-28T06:22:22;4.35;;;2.15;;
48951;SDS011;34758;42.148;24.744;2023-01-28T06:24:49;2.30;;;1.42;;
48951;SDS011;34758;42.148;24.744;2023-01-28T06:27:16;2.38;;;1.83;;
48951;SDS011;34758;42.148;24.744;2023-01-28T06:29:43;2.75;;;1.77;;
48951;SDS011;34758;42.148;24.744;2023-01-28T06:32:10;3.15;;;1.52;;
48951;SDS011;34758;42.148;24.744;2023-01-28T06:34:37;2.85;;;1.80;;
48951;SDS011;34758;42.148;24.744;2023-01-28T06:37:04;2.85;;;1.65;;
48951;SDS011;34758;42.148;24.744;2023-01-28T06:39:32;2.20;;;1.40;;
48951;SDS011;34758;42.148;24.744;2023-01-28T06:41:59;4.70;;;2.10;;
48951;SDS011;34758;42.148;24.744;2023-01-28T06:44:26;2.45;;;1.63;;
48951;SDS011;34758;42.148;24.744;2023-01-28T06:46:53;3.20;;;2.08;;
48951;SDS011;34758;42.148;24.744;2023-01-28T06:49:20;1.80;;;1.27;;
48951;SDS011;34758;42.148;24.744;2023-01-28T06:51:47;2.72;;;1.63;;
48951;SDS011;34758;42.148;24.744;2023-01-28T06:54:14;2.70;;;1.65;;
48951;SDS011;34758;42.148;24.744;2023-01-28T06:56:44;2.60;;;1.65;;
48951;SDS011;34758;42.148;24.744;2023-01-28T06:59:11;7.95;;;3.03;;
48951;SDS011;34758;42.148;24.744;2023-01-28T07:01:38;6.95;;;2.45;;
48951;SDS011;34758;42.148;24.744;2023-01-28T07:04:05;4.63;;;2.17;;
48951;SDS011;34758;42.148;24.744;2023-01-28T07:06:32;3.55;;;2.10;;
48951;SDS011;34758;42.148;24.744;2023-01-28T07:08:59;3.00;;;1.90;;
48951;SDS011;34758;42.148;24.744;2023-01-28T07:11:27;1.90;;;1.60;;
48951;SDS011;34758;42.148;24.744;2023-01-28T07:13:56;2.88;;;1.52;;
48951;SDS011;34758;42.148;24.744;2023-01-28T07:16:23;2.55;;;1.80;;
48951;SDS011;34758;42.148;24.744;2023-01-28T07:18:50;3.08;;;1.58;;
48951;SDS011;34758;42.148;24.744;2023-01-28T07:21:18;2.28;;;1.67;;
48951;SDS011;34758;42.148;24.744;2023-01-28T07:23:45;3.38;;;1.83;;
48951;SDS011;34758;42.148;24.744;2023-01-28T07:26:12;2.85;;;1.98;;
48951;SDS011;34758;42.148;24.744;2023-01-28T07:28:39;3.03;;;2.10;;
48951;SDS011;34758;42.148;24.744;2023-01-28T07:31:08;4.40;;;2.28;;
48951;SDS011;34758;42.148;24.744;2023-01-28T07:33:35;2.45;;;1.80;;
48951;SDS011;34758;42.148;24.744;2023-01-28T07:36:02;3.05;;;1.67;;
48951;SDS011;34758;42.148;24.744;2023-01-28T07:38:31;3.30;;;2.10;;
48951;SDS011;34758;42.148;24.744;2023-01-28T07:40:58;3.40;;;1.77;;
48951;SDS011;34758;42.148;24.744;2023-01-28T07:43:25;4.55;;;1.50;;
48951;SDS011;34758;42.148;24.744;2023-01-28T07:45:53;2.97;;;1.85;;
48951;SDS011;34758;42.148;24.744;2023-01-28T07:48:21;2.20;;;1.83;;
48951;SDS011;34758;42.148;24.744;2023-01-28T07:50:49;3.35;;;1.63;;
48951;SDS011;34758;42.148;24.744;2023-01-28T07:53:16;4.07;;;1.90;;
48951;SDS011;34758;42.148;24.744;2023-01-28T07:55:44;3.40;;;1.38;;
48951;SDS011;34758;42.148;24.744;2023-01-28T07:58:11;2.50;;;1.75;;
48951;SDS011;34758;42.148;24.744;2023-01-28T08:00:38;2.80;;;2.17;;
48951;SDS011;34758;42.148;24.744;2023-01-28T08:03:06;3.78;;;2.08;;
48951;SDS011;34758;42.148;24.744;2023-01-28T08:05:40;3.00;;;2.00;;
48951;SDS011;34758;42.148;24.744;2023-01-28T08:08:08;3.03;;;1.90;;
48951;SDS011;34758;42.148;24.744;2023-01-28T08:10:36;3.65;;;1.88;;
48951;SDS011;34758;42.148;24.744;2023-01-28T08:13:05;2.22;;;1.80;;
48951;SDS011;34758;42.148;24.744;2023-01-28T08:15:32;2.22;;;1.58;;
48951;SDS011;34758;42.148;24.744;2023-01-28T08:17:59;3.28;;;2.33;;
48951;SDS011;34758;42.148;24.744;2023-01-28T08:20:27;5.20;;;2.75;;
48951;SDS011;34758;42.148;24.744;2023-01-28T08:23:04;1.95;;;1.60;;
48951;SDS011;34758;42.148;24.744;2023-01-28T08:25:32;2.50;;;1.80;;
48951;SDS011;34758;42.148;24.744;2023-01-28T08:27:59;3.17;;;1.88;;
48951;SDS011;34758;42.148;24.744;2023-01-28T08:30:26;2.35;;;1.42;;
48951;SDS011;34758;42.148;24.744;2023-01-28T08:32:54;2.35;;;1.50;;
48951;SDS011;34758;42.148;24.744;2023-01-28T08:35:22;2.47;;;1.60;;
48951;SDS011;34758;42.148;24.744;2023-01-28T08:37:49;3.47;;;1.77;;
48951;SDS011;34758;42.148;24.744;2023-01-28T08:40:19;3.33;;;1.88;;
48951;SDS011;34758;42.148;24.744;2023-01-28T08:42:46;2.63;;;1.88;;
48951;SDS011;34758;42.148;24.744;2023-01-28T08:45:15;2.47;;;1.98;;
48951;SDS011;34758;42.148;24.744;2023-01-28T08:47:48;2.28;;;1.40;;
48951;SDS011;34758;42.148;24.744;2023-01-28T08:50:21;1.73;;;1.63;;
48951;SDS011;34758;42.148;24.744;2023-01-28T08:52:53;2.00;;;1.52;;
48951;SDS011;34758;42.148;24.744;2023-01-28T08:55:22;2.38;;;1.40;;
48951;SDS011;34758;42.148;24.744;2023-01-28T08:57:49;1.73;;;1.45;;
48951;SDS011;34758;42.148;24.744;2023-01-28T09:00:17;1.90;;;1.58;;
48951;SDS011;34758;42.148;24.744;2023-01-28T09:02:44;2.28;;;1.30;;
48951;SDS011;34758;42.148;24.744;2023-01-28T09:05:13;2.63;;;1.55;;
48951;SDS011;34758;42.148;24.744;2023-01-28T09:07:40;2.53;;;1.58;;
48951;SDS011;34758;42.148;24.744;2023-01-28T09:10:08;2.15;;;1.88;;
48951;SDS011;34758;42.148;24.744;2023-01-28T09:12:37;2.50;;;1.42;;
48951;SDS011;34758;42.148;24.744;2023-01-28T09:15:05;4.80;;;1.80;;
48951;SDS011;34758;42.148;24.744;2023-01-28T09:17:32;3.15;;;1.50;;
48951;SDS011;34758;42.148;24.744;2023-01-28T09:19:59;2.88;;;1.50;;
48951;SDS011;34758;42.148;24.744;2023-01-28T09:22:26;2.05;;;1.60;;
48951;SDS011;34758;42.148;24.744;2023-01-28T09:24:53;3.22;;;2.05;;
48951;SDS011;34758;42.148;24.744;2023-01-28T09:27:21;2.88;;;1.58;;
48951;SDS011;34758;42.148;24.744;2023-01-28T09:29:49;3.15;;;1.50;;
48951;SDS011;34758;42.148;24.744;2023-01-28T09:32:16;1.83;;;1.55;;
48951;SDS011;34758;42.148;24.744;2023-01-28T09:34:43;1.45;;;1.27;;
48951;SDS011;34758;42.148;24.744;2023-01-28T09:37:10;3.75;;;1.85;;
48951;SDS011;34758;42.148;24.744;2023-01-28T09:39:37;1.63;;;1.33;;
48951;SDS011;34758;42.148;24.744;2023-01-28T09:42:18;1.98;;;1.20;;
48951;SDS011;34758;42.148;24.744;2023-01-28T09:45:01;2.80;;;1.67;;
48951;SDS011;34758;42.148;24.744;2023-01-28T09:47:36;2.22;;;1.42;;
48951;SDS011;34758;42.148;24.744;2023-01-28T09:50:08;2.63;;;1.90;;
48951;SDS011;34758;42.148;24.744;2023-01-28T09:52:38;6.32;;;2.20;;
48951;SDS011;34758;42.148;24.744;2023-01-28T09:55:09;2.00;;;1.33;;
48951;SDS011;34758;42.148;24.744;2023-01-28T09:57:42;1.85;;;1.50;;
48951;SDS011;34758;42.148;24.744;2023-01-28T10:00:14;2.88;;;1.60;;
48951;SDS011;34758;42.148;24.744;2023-01-28T10:02:47;5.22;;;1.77;;
48951;SDS011;34758;42.148;24.744;2023-01-28T10:05:25;2.28;;;1.50;;
48951;SDS011;34758;42.148;24.744;2023-01-28T10:07:56;1.23;;;1.10;;
48951;SDS011;34758;42.148;24.744;2023-01-28T10:10:27;2.28;;;1.10;;
48951;SDS011;34758;42.148;24.744;2023-01-28T10:13:06;3.60;;;1.23;;
48951;SDS011;34758;42.148;24.744;2023-01-28T10:15:50;1.38;;;1.00;;
48951;SDS011;34758;42.148;24.744;2023-01-28T10:18:24;2.28;;;1.45;;
48951;SDS011;34758;42.148;24.744;2023-01-28T10:20:56;1.70;;;1.17;;
48951;SDS011;34758;42.148;24.744;2023-01-28T10:23:30;1.25;;;1.13;;
48951;SDS011;34758;42.148;24.744;2023-01-28T10:26:08;2.17;;;1.13;;
48951;SDS011;34758;42.148;24.744;2023-01-28T10:28:51;1.77;;;1.08;;
48951;SDS011;34758;42.148;24.744;2023-01-28T10:31:22;1.88;;;1.33;;
48951;SDS011;34758;42.148;24.744;2023-01-28T10:33:55;2.83;;;1.50;;
48951;SDS011;34758;42.148;24.744;2023-01-28T10:36:22;1.48;;;1.20;;
48951;SDS011;34758;42.148;24.744;2023-01-28T10:38:50;1.30;;;0.80;;
48951;SDS011;34758;42.148;24.744;2023-01-28T10:41:19;1.63;;;1.13;;
48951;SDS011;34758;42.148;24.744;2023-01-28T10:43:47;2.30;;;1.67;;
48951;SDS011;34758;42.148;24.744;2023-01-28T10:46:16;1.77;;;1.58;;
48951;SDS011;34758;42.148;24.744;2023-01-28T10:48:46;3.08;;;1.30;;
48951;SDS011;34758;42.148;24.744;2023-01-28T10:51:28;3.13;;;1.23;;
48951;SDS011;34758;42.148;24.744;2023-01-28T10:53:55;1.40;;;1.13;;
48951;SDS011;34758;42.148;24.744;2023-01-28T10:56:23;1.67;;;1.52;;
48951;SDS011;34758;42.148;24.744;2023-01-28T10:58:53;1.30;;;1.20;;
48951;SDS011;34758;42.148;24.744;2023-01-28T11:01:25;1.92;;;1.70;;
48951;SDS011;34758;42.148;24.744;2023-01-28T11:03:54;4.18;;;1.90;;
48951;SDS011;34758;42.148;24.744;2023-01-28T11:06:23;1.45;;;1.30;;
48951;SDS011;34758;42.148;24.744;2023-01-28T11:08:51;2.30;;;1.42;;
48951;SDS011;34758;42.148;24.744;2023-01-28T11:11:21;3.60;;;2.20;;
48951;SDS011;34758;42.148;24.744;2023-01-28T11:13:50;2.95;;;2.08;;
48951;SDS011;34758;42.148;24.744;2023-01-28T11:16:19;2.78;;;2.08;;
48951;SDS011;34758;42.148;24.744;2023-01-28T11:18:47;3.05;;;2.25;;
48951;SDS011;34758;42.148;24.744;2023-01-28T11:21:20;2.58;;;1.90;;
48951;SDS011;34758;42.148;24.744;2023-01-28T11:23:49;2.13;;;1.60;;
48951;SDS011;34758;42.148;24.744;2023-01-28T11:26:18;2.80;;;1.63;;
48951;SDS011;34758;42.148;24.744;2023-01-28T11:28:47;2.15;;;1.55;;
48951;SDS011;34758;42.148;24.744;2023-01-28T11:31:14;1.40;;;1.27;;
48951;SDS011;34758;42.148;24.744;2023-01-28T11:33:44;2.05;;;1.15;;
48951;SDS011;34758;42.148;24.744;2023-01-28T11:36:15;2.00;;;1.50;;
48951;SDS011;34758;42.148;24.744;2023-01-28T11:38:48;2.75;;;1.70;;
48951;SDS011;34758;42.148;24.744;2023-01-28T11:41:17;2.30;;;1.70;;
48951;SDS011;34758;42.148;24.744;2023-01-28T11:43:45;2.35;;;2.15;;
48951;SDS011;34758;42.148;24.744;2023-01-28T11:46:16;2.17;;;1.92;;
48951;SDS011;34758;42.148;24.744;2023-01-28T11:49:02;2.17;;;1.90;;
48951;SDS011;34758;42.148;24.744;2023-01-28T11:51:35;2.28;;;2.08;;
48951;SDS011;34758;42.148;24.744;2023-01-28T11:54:18;2.78;;;2.40;;
48951;SDS011;34758;42.148;24.744;2023-01-28T11:56:55;3.53;;;2.08;;
48951;SDS011;34758;42.148;24.744;2023-01-28T11:59:49;3.40;;;2.65;;
48951;SDS011;34758;42.148;24.744;2023-01-28T12:02:24;3.22;;;2.70;;
48951;SDS011;34758;42.148;24.744;2023-01-28T12:05:15;5.07;;;1.90;;
48951;SDS011;34758;42.148;24.744;2023-01-28T12:07:59;2.60;;;2.30;;
48951;SDS011;34758;42.148;24.744;2023-01-28T12:10:33;2.28;;;2.08;;
48951;SDS011;34758;42.148;24.744;2023-01-28T12:13:10;3.00;;;2.50;;
48951;SDS011;34758;42.148;24.744;2023-01-28T12:15:46;3.30;;;2.47;;
48951;SDS011;34758;42.148;24.744;2023-01-28T12:18:42;3.63;;;2.35;;
48951;SDS011;34758;42.148;24.744;2023-01-28T12:21:23;3.00;;;2.70;;
48951;SDS011;34758;42.148;24.744;2023-01-28T12:24:02;2.80;;;2.40;;
48951;SDS011;34758;42.148;24.744;2023-01-28T12:26:39;4.35;;;2.85;;
48951;SDS011;34758;42.148;24.744;2023-01-28T12:29:15;3.88;;;3.03;;
48951;SDS011;34758;42.148;24.744;2023-01-28T12:34:44;2.60;;;2.08;;
48951;SDS011;34758;42.148;24.744;2023-01-28T12:37:19;3.33;;;2.42;;
48951;SDS011;34758;42.148;24.744;2023-01-28T12:39:55;3.50;;;3.03;;
48951;SDS011;34758;42.148;24.744;2023-01-28T12:42:31;4.80;;;2.75;;
48951;SDS011;34758;42.148;24.744;2023-01-28T12:45:03;3.28;;;2.90;;
48951;SDS011;34758;42.148;24.744;2023-01-28T12:47:38;4.63;;;2.40;;
48951;SDS011;34758;42.148;24.744;2023-01-28T12:50:10;3.67;;;2.75;;
48951;SDS011;34758;42.148;24.744;2023-01-28T12:52:39;4.75;;;2.90;;
48951;SDS011;34758;42.148;24.744;2023-01-28T12:55:11;4.70;;;3.05;;
48951;SDS011;34758;42.148;24.744;2023-01-28T12:57:41;3.92;;;3.15;;
48951;SDS011;34758;42.148;24.744;2023-01-28T13:00:14;6.13;;;2.90;;
48951;SDS011;34758;42.148;24.744;2023-01-28T13:02:49;3.33;;;2.90;;
48951;SDS011;34758;42.148;24.744;2023-01-28T13:05:21;4.70;;;3.53;;
48951;SDS011;34758;42.148;24.744;2023-01-28T13:07:53;3.28;;;2.85;;
48951;SDS011;34758;42.148;24.744;2023-01-28T13:10:23;3.35;;;2.63;;
48951;SDS011;34758;42.148;24.744;2023-01-28T13:12:55;3.30;;;2.72;;
48951;SDS011;34758;42.148;24.744;2023-01-28T13:15:23;3.42;;;3.05;;
48951;SDS011;34758;42.148;24.744;2023-01-28T13:17:54;2.90;;;2.67;;
48951;SDS011;34758;42.148;24.744;2023-01-28T13:20:29;3.50;;;2.85;;
48951;SDS011;34758;42.148;24.744;2023-01-28T13:23:01;6.85;;;2.78;;
48951;SDS011;34758;42.148;24.744;2023-01-28T13:25:32;4.18;;;3.25;;
48951;SDS011;34758;42.148;24.744;2023-01-28T13:28:01;4.70;;;3.08;;
48951;SDS011;34758;42.148;24.744;2023-01-28T13:30:31;3.93;;;3.07;;
48951;SDS011;34758;42.148;24.744;2023-01-28T13:33:24;4.80;;;3.35;;
48951;SDS011;34758;42.148;24.744;2023-01-28T13:35:53;3.28;;;2.88;;
48951;SDS011;34758;42.148;24.744;2023-01-28T13:38:21;4.03;;;3.45;;
48951;SDS011;34758;42.148;24.744;2023-01-28T13:40:53;4.72;;;3.17;;
48951;SDS011;34758;42.148;24.744;2023-01-28T13:43:27;4.25;;;3.65;;
48951;SDS011;34758;42.148;24.744;2023-01-28T13:46:04;3.42;;;3.10;;
48951;SDS011;34758;42.148;24.744;2023-01-28T13:48:32;4.35;;;3.70;;
48951;SDS011;34758;42.148;24.744;2023-01-28T13:51:08;6.00;;;3.63;;
48951;SDS011;34758;42.148;24.744;2023-01-28T13:53:39;4.13;;;3.72;;
48951;SDS011;34758;42.148;24.744;2023-01-28T13:56:16;4.30;;;3.83;;
48951;SDS011;34758;42.148;24.744;2023-01-28T14:04:33;4.72;;;4.00;;
48951;SDS011;34758;42.148;24.744;2023-01-28T14:07:17;5.00;;;4.38;;
48951;SDS011;34758;42.148;24.744;2023-01-28T14:10:11;4.88;;;3.53;;
48951;SDS011;34758;42.148;24.744;2023-01-28T14:12:49;4.15;;;3.60;;
48951;SDS011;34758;42.148;24.744;2023-01-28T14:15:42;3.75;;;3.10;;
48951;SDS011;34758;42.148;24.744;2023-01-28T14:18:19;3.15;;;2.85;;
48951;SDS011;34758;42.148;24.744;2023-01-28T14:20:50;3.50;;;3.20;;
48951;SDS011;34758;42.148;24.744;2023-01-28T14:23:20;10.85;;;5.95;;
48951;SDS011;34758;42.148;24.744;2023-01-28T14:25:53;4.93;;;3.45;;
48951;SDS011;34758;42.148;24.744;2023-01-28T14:28:32;4.35;;;3.80;;
48951;SDS011;34758;42.148;24.744;2023-01-28T14:31:05;6.20;;;4.95;;
48951;SDS011;34758;42.148;24.744;2023-01-28T14:33:34;5.45;;;4.65;;
48951;SDS011;34758;42.148;24.744;2023-01-28T14:36:02;5.78;;;4.70;;
48951;SDS011;34758;42.148;24.744;2023-01-28T14:38:30;4.53;;;3.78;;
48951;SDS011;34758;42.148;24.744;2023-01-28T14:41:03;6.40;;;4.25;;
48951;SDS011;34758;42.148;24.744;2023-01-28T14:43:30;6.95;;;4.85;;
48951;SDS011;34758;42.148;24.744;2023-01-28T14:46:01;6.03;;;5.13;;
48951;SDS011;34758;42.148;24.744;2023-01-28T14:48:36;4.93;;;4.10;;
48951;SDS011;34758;42.148;24.744;2023-01-28T14:51:16;6.55;;;5.18;;
48951;SDS011;34758;42.148;24.744;2023-01-28T14:53:55;5.22;;;4.35;;
48951;SDS011;34758;42.148;24.744;2023-01-28T14:56:44;5.95;;;4.72;;
48951;SDS011;34758;42.148;24.744;2023-01-28T14:59:19;5.05;;;3.75;;
48951;SDS011;34758;42.148;24.744;2023-01-28T15:01:53;5.55;;;4.07;;
48951;SDS011;34758;42.148;24.744;2023-01-28T15:04:24;4.95;;;4.20;;